Time;durP1;ratioP1;P1;durP2;ratioP2;P2;SDS_P1;SDS_P2;PMS_P1;PMS_P2;Temp;Humidity;BMP_temperature;BMP_pressure;BME280_temperature;BME280_humidity;BME280_pressure;Samples;Min_cycle;Max_cycle;Signal;HPM_P1;HPM_P2
2022/08/30 00:01:04;;;;;;;0.00;0.00;;;;;;;;;;1738974;28;20242;-69
2022/08/30 00:01:57;;;;;;;0.00;0.00;;;;;;;;;;1739696;28;20214;-69
2022/08/30 00:02:49;;;;;;;0.00;0.00;;;;;;;;;;1740211;28;20524;-69
2022/08/30 00:03:42;;;;;;;0.00;0.00;;;;;;;;;;1739709;28;20206;-69
2022/08/30 00:04:34;;;;;;;0.00;0.00;;;;;;;;;;1740103;28;20199;-69
2022/08/30 00:05:26;;;;;;;0.00;0.00;;;;;;;;;;1738720;28;20660;-71
2022/08/30 00:06:19;;;;;;;0.00;0.00;;;;;;;;;;1740266;28;20285;-71
2022/08/30 00:07:11;;;;;;;0.00;0.00;;;;;;;;;;1739705;28;20199;-71
2022/08/30 00:08:03;;;;;;;0.00;0.00;;;;;;;;;;1740143;28;20211;-71
2022/08/30 00:08:55;;;;;;;0.00;0.00;;;;;;;;;;1740276;28;20823;-71
2022/08/30 00:09:47;;;;;;;0.00;0.00;;;;;;;;;;1740281;28;20206;-71
2022/08/30 00:10:39;;;;;;;0.00;0.00;;;;;;;;;;1738844;28;20238;-71
2022/08/30 00:11:31;;;;;;;0.00;0.00;;;;;;;;;;1739669;28;20195;-71
2022/08/30 00:12:23;;;;;;;0.00;0.00;;;;;;;;;;1739553;28;20207;-71
2022/08/30 00:13:15;;;;;;;0.00;0.00;;;;;;;;;;1740112;28;20230;-71
2022/08/30 00:14:06;;;;;;;0.00;0.00;;;;;;;;;;1739617;28;20206;-71
2022/08/30 00:15:00;;;;;;;0.00;0.00;;;;;;;;;;1740266;28;20203;-71
2022/08/30 00:15:51;;;;;;;0.00;0.00;;;;;;;;;;1738649;28;20654;-70
2022/08/30 00:16:43;;;;;;;0.00;0.00;;;;;;;;;;1740066;28;20214;-70
2022/08/30 00:17:34;;;;;;;0.00;0.00;;;;;;;;;;1739556;28;20203;-69
2022/08/30 00:18:27;;;;;;;0.00;0.00;;;;;;;;;;1740196;28;20199;-69
2022/08/30 00:19:18;;;;;;;0.00;0.00;;;;;;;;;;1739859;28;20203;-69
2022/08/30 00:20:15;;;;;;;0.00;0.00;;;;;;;;;;1739319;28;20214;-69
2022/08/30 00:21:06;;;;;;;0.00;0.00;;;;;;;;;;1739444;28;20238;-69
2022/08/30 00:21:58;;;;;;;0.00;0.00;;;;;;;;;;1738990;28;20206;-69
2022/08/30 00:22:49;;;;;;;0.00;0.00;;;;;;;;;;1736669;28;20293;-69
2022/08/30 00:23:42;;;;;;;0.00;0.00;;;;;;;;;;1739130;28;20225;-69
2022/08/30 00:24:33;;;;;;;0.00;0.00;;;;;;;;;;1736981;28;20662;-70
2022/08/30 00:25:25;;;;;;;0.00;0.00;;;;;;;;;;1739740;28;20229;-71
2022/08/30 00:26:16;;;;;;;0.00;0.00;;;;;;;;;;1740264;28;20210;-71
2022/08/30 00:27:09;;;;;;;0.00;0.00;;;;;;;;;;1739260;28;20221;-71
2022/08/30 00:28:01;;;;;;;0.00;0.00;;;;;;;;;;1739899;28;20211;-71
2022/08/30 00:28:54;;;;;;;0.00;0.00;;;;;;;;;;1739340;28;20199;-71
2022/08/30 00:29:45;;;;;;;0.00;0.00;;;;;;;;;;1739312;28;20615;-71
2022/08/30 00:30:39;;;;;;;0.00;0.00;;;;;;;;;;1738569;28;20237;-69
2022/08/30 00:31:30;;;;;;;0.00;0.00;;;;;;;;;;1739893;28;20202;-69
2022/08/30 00:32:23;;;;;;;0.00;0.00;;;;;;;;;;1739482;28;20285;-69
2022/08/30 00:33:14;;;;;;;0.00;0.00;;;;;;;;;;1739752;28;20230;-69
2022/08/30 00:34:06;;;;;;;0.00;0.00;;;;;;;;;;1739445;28;20285;-69
2022/08/30 00:34:58;;;;;;;0.00;0.00;;;;;;;;;;1740135;28;20637;-69
2022/08/30 00:35:50;;;;;;;0.00;0.00;;;;;;;;;;1738673;28;20226;-71
2022/08/30 00:36:41;;;;;;;0.00;0.00;;;;;;;;;;1740031;28;20222;-71
2022/08/30 00:37:33;;;;;;;0.00;0.00;;;;;;;;;;1739435;28;20218;-71
2022/08/30 00:38:24;;;;;;;0.00;0.00;;;;;;;;;;1739776;28;20624;-71
2022/08/30 00:39:17;;;;;;;0.00;0.00;;;;;;;;;;1735911;28;20207;-70
2022/08/30 00:40:14;;;;;;;0.00;0.00;;;;;;;;;;1739807;28;20210;-71
2022/08/30 00:41:06;;;;;;;0.00;0.00;;;;;;;;;;1738552;28;20641;-71
2022/08/30 00:41:58;;;;;;;0.00;0.00;;;;;;;;;;1739289;28;20494;-71
2022/08/30 00:42:50;;;;;;;0.00;0.00;;;;;;;;;;1739923;28;20226;-71
2022/08/30 00:43:41;;;;;;;0.00;0.00;;;;;;;;;;1739321;28;20667;-70
2022/08/30 00:44:33;;;;;;;0.00;0.00;;;;;;;;;;1739853;28;20191;-71
2022/08/30 00:45:26;;;;;;;0.00;0.00;;;;;;;;;;1738650;28;20274;-71
2022/08/30 00:46:20;;;;;;;0.00;0.00;;;;;;;;;;1739979;28;20203;-71
2022/08/30 00:47:11;;;;;;;0.00;0.00;;;;;;;;;;1739425;28;20202;-71
2022/08/30 00:48:04;;;;;;;0.00;0.00;;;;;;;;;;1739833;28;20620;-71
2022/08/30 00:48:55;;;;;;;0.00;0.00;;;;;;;;;;1739224;28;20207;-71
2022/08/30 00:49:55;;;;;;;0.00;0.00;;;;;;;;;;1739995;28;20234;-71
2022/08/30 00:50:47;;;;;;;0.00;0.00;;;;;;;;;;1738527;28;20238;-69
2022/08/30 00:51:40;;;;;;;0.00;0.00;;;;;;;;;;1739839;28;20528;-69
2022/08/30 00:52:31;;;;;;;0.00;0.00;;;;;;;;;;1739048;28;20525;-69
2022/08/30 00:53:25;;;;;;;0.00;0.00;;;;;;;;;;1739699;28;20223;-69
2022/08/30 00:54:17;;;;;;;0.00;0.00;;;;;;;;;;1739109;28;20203;-69
2022/08/30 00:55:13;;;;;;;0.00;0.00;;;;;;;;;;1739274;28;20221;-69
2022/08/30 00:56:04;;;;;;;0.00;0.00;;;;;;;;;;1739070;28;20834;-69
2022/08/30 00:56:57;;;;;;;0.00;0.00;;;;;;;;;;1739255;28;20621;-69
2022/08/30 00:57:51;;;;;;;0.00;0.00;;;;;;;;;;1739753;28;20203;-69
2022/08/30 00:58:44;;;;;;;0.00;0.00;;;;;;;;;;1739193;28;20217;-69
2022/08/30 00:59:35;;;;;;;0.00;0.00;;;;;;;;;;1750861;28;20232;-69
2022/08/30 01:00:34;;;;;;;0.00;0.00;;;;;;;;;;1754134;28;20212;-69
2022/08/30 01:01:27;;;;;;;0.00;0.00;;;;;;;;;;1752839;28;20205;-69
2022/08/30 01:02:22;;;;;;;0.00;0.00;;;;;;;;;;1752668;28;20543;-69
2022/08/30 01:03:14;;;;;;;0.00;0.00;;;;;;;;;;1753792;28;20201;-69
2022/08/30 01:04:07;;;;;;;0.00;0.00;;;;;;;;;;1753230;28;20524;-69
2022/08/30 01:05:00;;;;;;;0.00;0.00;;;;;;;;;;1753605;28;20202;-69
2022/08/30 01:05:52;;;;;;;0.00;0.00;;;;;;;;;;1752194;28;20229;-69
2022/08/30 01:06:43;;;;;;;0.00;0.00;;;;;;;;;;1753701;28;20209;-69
2022/08/30 01:07:35;;;;;;;0.00;0.00;;;;;;;;;;1753059;28;20192;-69
2022/08/30 01:08:26;;;;;;;0.00;0.00;;;;;;;;;;1753639;28;20202;-69
2022/08/30 01:09:19;;;;;;;0.00;0.00;;;;;;;;;;1753285;28;20185;-69
2022/08/30 01:10:14;;;;;;;0.00;0.00;;;;;;;;;;1752996;28;20197;-69
2022/08/30 01:11:06;;;;;;;0.00;0.00;;;;;;;;;;1752724;28;20230;-70
2022/08/30 01:11:57;;;;;;;0.00;0.00;;;;;;;;;;1752946;28;20206;-69
2022/08/30 01:12:50;;;;;;;0.00;0.00;;;;;;;;;;1753695;28;20232;-69
2022/08/30 01:13:41;;;;;;;0.00;0.00;;;;;;;;;;1753254;28;20212;-69
2022/08/30 01:14:34;;;;;;;0.00;0.00;;;;;;;;;;1753531;28;20204;-69
2022/08/30 01:15:25;;;;;;;0.00;0.00;;;;;;;;;;1752238;28;20198;-69
2022/08/30 01:16:17;;;;;;;0.00;0.00;;;;;;;;;;1753268;28;20251;-69
2022/08/30 01:17:10;;;;;;;0.00;0.00;;;;;;;;;;1752994;28;20209;-69
2022/08/30 01:18:03;;;;;;;0.00;0.00;;;;;;;;;;1753531;28;20224;-69
2022/08/30 01:18:56;;;;;;;0.00;0.00;;;;;;;;;;1753162;28;20206;-69
2022/08/30 01:19:51;;;;;;;0.00;0.00;;;;;;;;;;1748227;28;20202;-69
2022/08/30 01:20:45;;;;;;;0.00;0.00;;;;;;;;;;1751117;28;20234;-69
2022/08/30 01:21:40;;;;;;;0.00;0.00;;;;;;;;;;1748551;28;20202;-69
2022/08/30 01:22:34;;;;;;;0.00;0.00;;;;;;;;;;1752092;28;20198;-69
2022/08/30 01:23:28;;;;;;;0.00;0.00;;;;;;;;;;1751555;28;20212;-69
2022/08/30 01:24:20;;;;;;;0.00;0.00;;;;;;;;;;1753672;28;20796;-69
2022/08/30 01:25:12;;;;;;;0.00;0.00;;;;;;;;;;1752676;28;20232;-71
2022/08/30 01:26:04;;;;;;;0.00;0.00;;;;;;;;;;1753380;28;20639;-70
2022/08/30 01:26:56;;;;;;;0.00;0.00;;;;;;;;;;1752604;28;20202;-70
2022/08/30 01:27:51;;;;;;;0.00;0.00;;;;;;;;;;1753499;28;21101;-70
2022/08/30 01:28:47;;;;;;;0.00;0.00;;;;;;;;;;1753102;28;20201;-70
2022/08/30 01:29:38;;;;;;;0.00;0.00;;;;;;;;;;1752948;28;20201;-70
2022/08/30 01:30:31;;;;;;;0.00;0.00;;;;;;;;;;1752184;28;20231;-70
2022/08/30 01:31:22;;;;;;;0.00;0.00;;;;;;;;;;1753582;28;20715;-70
2022/08/30 01:32:18;;;;;;;0.00;0.00;;;;;;;;;;1752625;28;20264;-71
2022/08/30 01:33:10;;;;;;;0.00;0.00;;;;;;;;;;1753346;28;20202;-71
2022/08/30 01:34:04;;;;;;;0.00;0.00;;;;;;;;;;1752934;28;20252;-70
2022/08/30 01:34:55;;;;;;;0.00;0.00;;;;;;;;;;1753478;28;20263;-70
2022/08/30 01:35:48;;;;;;;0.00;0.00;;;;;;;;;;1751309;28;20614;-69
2022/08/30 01:36:41;;;;;;;0.00;0.00;;;;;;;;;;1753452;28;20202;-69
2022/08/30 01:37:33;;;;;;;0.00;0.00;;;;;;;;;;1752566;28;20212;-69
2022/08/30 01:38:27;;;;;;;0.00;0.00;;;;;;;;;;1753688;28;20209;-69
2022/08/30 01:39:20;;;;;;;0.00;0.00;;;;;;;;;;1753169;28;20279;-69
2022/08/30 01:40:12;;;;;;;0.00;0.00;;;;;;;;;;1752166;28;20697;-68
2022/08/30 01:41:08;;;;;;;0.00;0.00;;;;;;;;;;1752338;28;20679;-69
2022/08/30 01:42:00;;;;;;;0.00;0.00;;;;;;;;;;1753109;28;20254;-69
2022/08/30 01:42:51;;;;;;;0.00;0.00;;;;;;;;;;1749835;28;20631;-69
2022/08/30 01:43:44;;;;;;;0.00;0.00;;;;;;;;;;1752831;28;20198;-69
2022/08/30 01:44:35;;;;;;;0.00;0.00;;;;;;;;;;1753378;28;20270;-69
2022/08/30 01:45:27;;;;;;;0.00;0.00;;;;;;;;;;1752106;28;20224;-70
2022/08/30 01:46:20;;;;;;;0.00;0.00;;;;;;;;;;1753538;28;20577;-70
2022/08/30 01:47:12;;;;;;;0.00;0.00;;;;;;;;;;1752750;28;20233;-71
2022/08/30 01:48:03;;;;;;;0.00;0.00;;;;;;;;;;1753123;28;20209;-70
2022/08/30 01:48:57;;;;;;;0.00;0.00;;;;;;;;;;1752760;28;20284;-71
2022/08/30 01:49:48;;;;;;;0.00;0.00;;;;;;;;;;1753539;28;20666;-70
2022/08/30 01:50:41;;;;;;;0.00;0.00;;;;;;;;;;1751518;28;20236;-69
2022/08/30 01:51:32;;;;;;;0.00;0.00;;;;;;;;;;1753202;28;20205;-69
2022/08/30 01:52:25;;;;;;;0.00;0.00;;;;;;;;;;1752788;28;20209;-69
2022/08/30 01:53:16;;;;;;;0.00;0.00;;;;;;;;;;1752765;28;20209;-69
2022/08/30 01:54:08;;;;;;;0.00;0.00;;;;;;;;;;1752349;28;20786;-69
2022/08/30 01:55:01;;;;;;;0.00;0.00;;;;;;;;;;1753278;28;20240;-69
2022/08/30 01:55:53;;;;;;;0.00;0.00;;;;;;;;;;1751490;28;20233;-69
2022/08/30 01:56:44;;;;;;;0.00;0.00;;;;;;;;;;1753341;28;20531;-69
2022/08/30 01:57:37;;;;;;;0.00;0.00;;;;;;;;;;1752775;28;20801;-69
2022/08/30 01:58:28;;;;;;;0.00;0.00;;;;;;;;;;1752795;28;20217;-69
2022/08/30 01:59:20;;;;;;;0.00;0.00;;;;;;;;;;1752494;28;20232;-69
2022/08/30 02:00:12;;;;;;;0.00;0.00;;;;;;;;;;1752284;28;20220;-69
2022/08/30 02:01:05;;;;;;;0.00;0.00;;;;;;;;;;1753119;28;20262;-69
2022/08/30 02:01:56;;;;;;;0.00;0.00;;;;;;;;;;1752737;28;20216;-69
2022/08/30 02:02:49;;;;;;;0.00;0.00;;;;;;;;;;1753244;28;20307;-69
2022/08/30 02:03:40;;;;;;;0.00;0.00;;;;;;;;;;1752986;28;20201;-69
2022/08/30 02:04:35;;;;;;;0.00;0.00;;;;;;;;;;1752893;28;20212;-69
2022/08/30 02:05:26;;;;;;;0.00;0.00;;;;;;;;;;1751924;28;20311;-71
2022/08/30 02:06:20;;;;;;;0.00;0.00;;;;;;;;;;1753361;28;20229;-70
2022/08/30 02:07:11;;;;;;;0.00;0.00;;;;;;;;;;1752906;28;20205;-70
2022/08/30 02:08:04;;;;;;;0.00;0.00;;;;;;;;;;1753079;28;20300;-70
2022/08/30 02:08:55;;;;;;;0.00;0.00;;;;;;;;;;1752991;28;20512;-71
2022/08/30 02:09:47;;;;;;;0.00;0.00;;;;;;;;;;1753201;28;20666;-71
2022/08/30 02:10:40;;;;;;;0.00;0.00;;;;;;;;;;1751629;28;20237;-69
2022/08/30 02:11:32;;;;;;;0.00;0.00;;;;;;;;;;1753308;28;20201;-69
2022/08/30 02:12:24;;;;;;;0.00;0.00;;;;;;;;;;1752627;28;20237;-69
2022/08/30 02:13:17;;;;;;;0.00;0.00;;;;;;;;;;1753491;28;20753;-69
2022/08/30 02:14:08;;;;;;;0.00;0.00;;;;;;;;;;1752203;28;20209;-69
2022/08/30 02:15:00;;;;;;;0.00;0.00;;;;;;;;;;1753236;28;20201;-69
2022/08/30 02:15:53;;;;;;;0.00;0.00;;;;;;;;;;1751534;28;20229;-70
2022/08/30 02:16:46;;;;;;;0.00;0.00;;;;;;;;;;1753440;28;20209;-70
2022/08/30 02:17:37;;;;;;;0.00;0.00;;;;;;;;;;1752861;28;20208;-70
2022/08/30 02:18:29;;;;;;;0.00;0.00;;;;;;;;;;1753374;28;20208;-70
2022/08/30 02:19:20;;;;;;;0.00;0.00;;;;;;;;;;1753096;28;20201;-71
2022/08/30 02:20:13;;;;;;;0.00;0.00;;;;;;;;;;1752691;28;20202;-72
2022/08/30 02:21:04;;;;;;;0.00;0.00;;;;;;;;;;1752124;28;20546;-70
2022/08/30 02:21:56;;;;;;;0.00;0.00;;;;;;;;;;1753065;28;20201;-70
2022/08/30 02:22:48;;;;;;;0.00;0.00;;;;;;;;;;1753390;28;20202;-70
2022/08/30 02:23:40;;;;;;;0.00;0.00;;;;;;;;;;1752657;28;20259;-71
2022/08/30 02:24:31;;;;;;;0.00;0.00;;;;;;;;;;1749840;28;20591;-71
2022/08/30 02:25:24;;;;;;;0.00;0.00;;;;;;;;;;1752667;28;20208;-71
2022/08/30 02:26:16;;;;;;;0.00;0.00;;;;;;;;;;1752978;28;20634;-71
2022/08/30 02:27:09;;;;;;;0.00;0.00;;;;;;;;;;1752902;28;20194;-70
2022/08/30 02:28:00;;;;;;;0.00;0.00;;;;;;;;;;1753154;28;20205;-70
2022/08/30 02:28:53;;;;;;;0.00;0.00;;;;;;;;;;1753049;28;20206;-70
2022/08/30 02:29:44;;;;;;;0.00;0.00;;;;;;;;;;1752868;28;20391;-70
2022/08/30 02:30:36;;;;;;;0.00;0.00;;;;;;;;;;1751757;28;20630;-70
2022/08/30 02:31:28;;;;;;;0.00;0.00;;;;;;;;;;1753087;28;20856;-69
2022/08/30 02:32:20;;;;;;;0.00;0.00;;;;;;;;;;1752373;28;20198;-69
2022/08/30 02:33:11;;;;;;;0.00;0.00;;;;;;;;;;1753018;28;20201;-69
2022/08/30 02:34:03;;;;;;;0.00;0.00;;;;;;;;;;1752604;28;20222;-69
2022/08/30 02:34:54;;;;;;;0.00;0.00;;;;;;;;;;1753188;28;20684;-69
2022/08/30 02:35:47;;;;;;;0.00;0.00;;;;;;;;;;1751911;28;20255;-70
2022/08/30 02:36:39;;;;;;;0.00;0.00;;;;;;;;;;1753290;28;20205;-70
2022/08/30 02:37:31;;;;;;;0.00;0.00;;;;;;;;;;1752509;28;20197;-70
2022/08/30 02:38:23;;;;;;;0.00;0.00;;;;;;;;;;1753518;28;20201;-70
2022/08/30 02:39:15;;;;;;;0.00;0.00;;;;;;;;;;1752545;28;20193;-70
2022/08/30 02:40:07;;;;;;;0.00;0.00;;;;;;;;;;1752168;28;20197;-72
2022/08/30 02:40:59;;;;;;;0.00;0.00;;;;;;;;;;1752147;28;20704;-69
2022/08/30 02:41:52;;;;;;;0.00;0.00;;;;;;;;;;1753008;28;20212;-69
2022/08/30 02:42:44;;;;;;;0.00;0.00;;;;;;;;;;1752613;28;20205;-69
2022/08/30 02:43:35;;;;;;;0.00;0.00;;;;;;;;;;1752649;28;20212;-69
2022/08/30 02:44:29;;;;;;;0.00;0.00;;;;;;;;;;1753148;28;20549;-69
2022/08/30 02:45:20;;;;;;;0.00;0.00;;;;;;;;;;1751672;28;20452;-70
2022/08/30 02:46:13;;;;;;;0.00;0.00;;;;;;;;;;1753408;28;20690;-70
2022/08/30 02:47:04;;;;;;;0.00;0.00;;;;;;;;;;1752692;28;20210;-70
2022/08/30 02:47:56;;;;;;;0.00;0.00;;;;;;;;;;1752950;28;20205;-70
2022/08/30 02:48:48;;;;;;;0.00;0.00;;;;;;;;;;1752795;28;20236;-70
2022/08/30 02:49:40;;;;;;;0.00;0.00;;;;;;;;;;1753277;28;20201;-70
2022/08/30 02:50:31;;;;;;;0.00;0.00;;;;;;;;;;1751744;28;20608;-70
2022/08/30 02:51:23;;;;;;;0.00;0.00;;;;;;;;;;1753336;28;20278;-70
2022/08/30 02:52:14;;;;;;;0.00;0.00;;;;;;;;;;1752630;28;20265;-70
2022/08/30 02:53:06;;;;;;;0.00;0.00;;;;;;;;;;1752680;28;20198;-70
2022/08/30 02:53:58;;;;;;;0.00;0.00;;;;;;;;;;1752550;28;20703;-70
2022/08/30 02:54:50;;;;;;;0.00;0.00;;;;;;;;;;1753642;28;20210;-70
2022/08/30 02:55:41;;;;;;;0.00;0.00;;;;;;;;;;1752749;28;20594;-69
2022/08/30 02:56:33;;;;;;;0.00;0.00;;;;;;;;;;1753098;28;20642;-69
2022/08/30 02:57:26;;;;;;;0.00;0.00;;;;;;;;;;1752910;28;20210;-69
2022/08/30 02:58:18;;;;;;;0.00;0.00;;;;;;;;;;1753436;28;20197;-69
2022/08/30 02:59:09;;;;;;;0.00;0.00;;;;;;;;;;1751840;28;20614;-69
2022/08/30 03:00:01;;;;;;;0.00;0.00;;;;;;;;;;1753164;28;20205;-69
2022/08/30 03:00:52;;;;;;;0.00;0.00;;;;;;;;;;1752578;28;20289;-69
2022/08/30 03:01:45;;;;;;;0.00;0.00;;;;;;;;;;1753061;28;20202;-69
2022/08/30 03:02:36;;;;;;;0.00;0.00;;;;;;;;;;1752590;28;20201;-69
2022/08/30 03:03:28;;;;;;;0.00;0.00;;;;;;;;;;1753131;28;20198;-69
2022/08/30 03:04:19;;;;;;;0.00;0.00;;;;;;;;;;1752503;28;20194;-69
2022/08/30 03:05:13;;;;;;;0.00;0.00;;;;;;;;;;1751823;28;20197;-69
2022/08/30 03:06:04;;;;;;;0.00;0.00;;;;;;;;;;1753065;28;20210;-69
2022/08/30 03:06:56;;;;;;;0.00;0.00;;;;;;;;;;1752832;28;20213;-69
2022/08/30 03:07:47;;;;;;;0.00;0.00;;;;;;;;;;1753079;28;20209;-69
2022/08/30 03:08:40;;;;;;;0.00;0.00;;;;;;;;;;1752745;28;20208;-69
2022/08/30 03:09:31;;;;;;;0.00;0.00;;;;;;;;;;1749109;28;20618;-69
2022/08/30 03:10:23;;;;;;;0.00;0.00;;;;;;;;;;1751336;28;20304;-69
2022/08/30 03:11:14;;;;;;;0.00;0.00;;;;;;;;;;1753257;28;20259;-69
2022/08/30 03:12:07;;;;;;;0.00;0.00;;;;;;;;;;1752359;28;20198;-69
2022/08/30 03:12:59;;;;;;;0.00;0.00;;;;;;;;;;1753073;28;20542;-69
2022/08/30 03:13:52;;;;;;;0.00;0.00;;;;;;;;;;1752740;28;21127;-69
2022/08/30 03:14:43;;;;;;;0.00;0.00;;;;;;;;;;1752889;28;20550;-69
2022/08/30 03:15:35;;;;;;;0.00;0.00;;;;;;;;;;1751428;28;20615;-70
2022/08/30 03:16:26;;;;;;;0.00;0.00;;;;;;;;;;1753092;28;20574;-70
2022/08/30 03:17:19;;;;;;;0.00;0.00;;;;;;;;;;1752826;28;20673;-70
2022/08/30 03:18:10;;;;;;;0.00;0.00;;;;;;;;;;1753125;28;20217;-70
2022/08/30 03:19:02;;;;;;;0.00;0.00;;;;;;;;;;1752666;28;20284;-70
2022/08/30 03:19:53;;;;;;;0.00;0.00;;;;;;;;;;1753274;28;20205;-70
2022/08/30 03:20:45;;;;;;;0.00;0.00;;;;;;;;;;1751466;28;20265;-70
2022/08/30 03:21:37;;;;;;;0.00;0.00;;;;;;;;;;1753114;28;20197;-70
2022/08/30 03:22:30;;;;;;;0.00;0.00;;;;;;;;;;1752370;28;20252;-70
2022/08/30 03:23:21;;;;;;;0.00;0.00;;;;;;;;;;1753016;28;20320;-70
2022/08/30 03:24:13;;;;;;;0.00;0.00;;;;;;;;;;1752596;28;20193;-70
2022/08/30 03:25:05;;;;;;;0.00;0.00;;;;;;;;;;1753154;28;20202;-70
2022/08/30 03:25:57;;;;;;;0.00;0.00;;;;;;;;;;1753242;28;20806;-70
2022/08/30 03:26:48;;;;;;;0.00;0.00;;;;;;;;;;1754387;28;20201;-70
2022/08/30 03:27:40;;;;;;;0.00;0.00;;;;;;;;;;1754170;28;20226;-70
2022/08/30 03:28:33;;;;;;;0.00;0.00;;;;;;;;;;1754142;28;20707;-70
2022/08/30 03:29:25;;;;;;;0.00;0.00;;;;;;;;;;1753625;28;20528;-70
2022/08/30 03:30:16;;;;;;;0.00;0.00;;;;;;;;;;1752999;28;20201;-70
2022/08/30 03:31:09;;;;;;;0.00;0.00;;;;;;;;;;1753718;28;20194;-69
2022/08/30 03:32:00;;;;;;;0.00;0.00;;;;;;;;;;1754169;28;20205;-69
2022/08/30 03:32:52;;;;;;;0.00;0.00;;;;;;;;;;1754446;28;20209;-69
2022/08/30 03:33:44;;;;;;;0.00;0.00;;;;;;;;;;1754689;28;20247;-69
2022/08/30 03:34:36;;;;;;;0.00;0.00;;;;;;;;;;1754315;28;20243;-69
2022/08/30 03:35:27;;;;;;;0.00;0.00;;;;;;;;;;1752815;28;20655;-69
2022/08/30 03:36:20;;;;;;;0.00;0.00;;;;;;;;;;1754462;28;20221;-69
2022/08/30 03:37:11;;;;;;;0.00;0.00;;;;;;;;;;1753810;28;20221;-69
2022/08/30 03:38:04;;;;;;;0.00;0.00;;;;;;;;;;1754269;28;20205;-69
2022/08/30 03:38:56;;;;;;;0.00;0.00;;;;;;;;;;1753934;28;20262;-69
2022/08/30 03:39:48;;;;;;;0.00;0.00;;;;;;;;;;1754515;28;20666;-69
2022/08/30 03:40:40;;;;;;;0.00;0.00;;;;;;;;;;1752501;28;20237;-70
2022/08/30 03:41:34;;;;;;;0.00;0.00;;;;;;;;;;1754257;28;20607;-70
2022/08/30 03:42:26;;;;;;;0.00;0.00;;;;;;;;;;1753317;28;20197;-71
2022/08/30 03:43:18;;;;;;;0.00;0.00;;;;;;;;;;1754564;28;20600;-70
2022/08/30 03:44:10;;;;;;;0.00;0.00;;;;;;;;;;1753763;28;20205;-70
2022/08/30 03:45:03;;;;;;;0.00;0.00;;;;;;;;;;1754270;28;20634;-70
2022/08/30 03:45:54;;;;;;;0.00;0.00;;;;;;;;;;1752775;28;20233;-71
2022/08/30 03:46:45;;;;;;;0.00;0.00;;;;;;;;;;1754315;28;20209;-71
2022/08/30 03:47:38;;;;;;;0.00;0.00;;;;;;;;;;1753400;28;20761;-70
2022/08/30 03:48:31;;;;;;;0.00;0.00;;;;;;;;;;1754101;28;20198;-70
2022/08/30 03:49:24;;;;;;;0.00;0.00;;;;;;;;;;1753950;28;20504;-70
2022/08/30 03:50:15;;;;;;;0.00;0.00;;;;;;;;;;1752921;28;20205;-69
2022/08/30 03:51:07;;;;;;;0.00;0.00;;;;;;;;;;1754148;28;20263;-69
2022/08/30 03:51:58;;;;;;;0.00;0.00;;;;;;;;;;1753769;28;20220;-69
2022/08/30 03:52:51;;;;;;;0.00;0.00;;;;;;;;;;1753849;28;20564;-69
2022/08/30 03:53:42;;;;;;;0.00;0.00;;;;;;;;;;1753443;28;20627;-69
2022/08/30 03:54:34;;;;;;;0.00;0.00;;;;;;;;;;1754140;28;20328;-69
2022/08/30 03:55:27;;;;;;;0.00;0.00;;;;;;;;;;1753667;28;20277;-70
2022/08/30 03:56:19;;;;;;;0.00;0.00;;;;;;;;;;1754286;28;20217;-71
2022/08/30 03:57:10;;;;;;;0.00;0.00;;;;;;;;;;1753490;28;20236;-70
2022/08/30 03:58:03;;;;;;;0.00;0.00;;;;;;;;;;1753909;28;20611;-70
2022/08/30 03:58:54;;;;;;;0.00;0.00;;;;;;;;;;1754588;28;20252;-70
2022/08/30 03:59:48;;;;;;;0.00;0.00;;;;;;;;;;1753818;28;20237;-70
2022/08/30 04:00:39;;;;;;;0.00;0.00;;;;;;;;;;1753413;28;20238;-69
2022/08/30 04:01:31;;;;;;;0.00;0.00;;;;;;;;;;1754184;28;20651;-69
2022/08/30 04:02:22;;;;;;;0.00;0.00;;;;;;;;;;1753654;28;20202;-69
2022/08/30 04:03:14;;;;;;;0.00;0.00;;;;;;;;;;1754255;28;20581;-69
2022/08/30 04:04:06;;;;;;;0.00;0.00;;;;;;;;;;1753470;28;20217;-69
2022/08/30 04:04:58;;;;;;;0.00;0.00;;;;;;;;;;1754317;28;20628;-69
2022/08/30 04:05:49;;;;;;;0.00;0.00;;;;;;;;;;1752586;28;20740;-70
2022/08/30 04:06:41;;;;;;;0.00;0.00;;;;;;;;;;1754316;28;20221;-70
2022/08/30 04:07:32;;;;;;;0.00;0.00;;;;;;;;;;1753504;28;20197;-71
2022/08/30 04:08:25;;;;;;;0.00;0.00;;;;;;;;;;1754359;28;20572;-70
2022/08/30 04:09:16;;;;;;;0.00;0.00;;;;;;;;;;1753428;28;20205;-70
2022/08/30 04:10:10;;;;;;;0.00;0.00;;;;;;;;;;1753296;28;20696;-71
2022/08/30 04:11:01;;;;;;;0.00;0.00;;;;;;;;;;1753344;28;20234;-70
2022/08/30 04:11:54;;;;;;;0.00;0.00;;;;;;;;;;1753639;28;20236;-71
2022/08/30 04:12:45;;;;;;;0.00;0.00;;;;;;;;;;1754061;28;20235;-71
2022/08/30 04:13:37;;;;;;;0.00;0.00;;;;;;;;;;1753752;28;20221;-71
2022/08/30 04:14:28;;;;;;;0.00;0.00;;;;;;;;;;1753454;28;20232;-71
2022/08/30 04:15:22;;;;;;;0.00;0.00;;;;;;;;;;1752525;28;20592;-71
2022/08/30 04:16:13;;;;;;;0.00;0.00;;;;;;;;;;1754000;28;20201;-71
2022/08/30 04:17:05;;;;;;;0.00;0.00;;;;;;;;;;1753356;28;20219;-71
2022/08/30 04:17:56;;;;;;;0.00;0.00;;;;;;;;;;1754044;28;20638;-71
2022/08/30 04:18:49;;;;;;;0.00;0.00;;;;;;;;;;1753644;28;21006;-71
2022/08/30 04:19:40;;;;;;;0.00;0.00;;;;;;;;;;1753786;28;20198;-70
2022/08/30 04:20:32;;;;;;;0.00;0.00;;;;;;;;;;1752393;28;20309;-69
2022/08/30 04:21:24;;;;;;;0.00;0.00;;;;;;;;;;1754055;28;20613;-69
2022/08/30 04:22:16;;;;;;;0.00;0.00;;;;;;;;;;1753413;28;20197;-69
2022/08/30 04:23:08;;;;;;;0.00;0.00;;;;;;;;;;1753649;28;20205;-69
2022/08/30 04:24:00;;;;;;;0.00;0.00;;;;;;;;;;1753452;28;20296;-69
2022/08/30 04:24:51;;;;;;;0.00;0.00;;;;;;;;;;1754091;28;20236;-69
2022/08/30 04:25:44;;;;;;;0.00;0.00;;;;;;;;;;1753019;28;20674;-69
2022/08/30 04:26:35;;;;;;;0.00;0.00;;;;;;;;;;1753766;28;20198;-69
2022/08/30 04:27:27;;;;;;;0.00;0.00;;;;;;;;;;1753689;28;20208;-70
2022/08/30 04:28:18;;;;;;;0.00;0.00;;;;;;;;;;1754370;28;20201;-69
2022/08/30 04:29:15;;;;;;;0.00;0.00;;;;;;;;;;1752820;28;20207;-69
2022/08/30 04:30:06;;;;;;;0.00;0.00;;;;;;;;;;1753990;28;20202;-69
2022/08/30 04:31:00;;;;;;;0.00;0.00;;;;;;;;;;1749057;28;20236;-69
2022/08/30 04:31:52;;;;;;;0.00;0.00;;;;;;;;;;1754102;28;20255;-69
2022/08/30 04:32:44;;;;;;;0.00;0.00;;;;;;;;;;1753838;28;20205;-69
2022/08/30 04:33:35;;;;;;;0.00;0.00;;;;;;;;;;1753665;28;20197;-69
2022/08/30 04:34:28;;;;;;;0.00;0.00;;;;;;;;;;1753854;28;20289;-69
2022/08/30 04:35:19;;;;;;;0.00;0.00;;;;;;;;;;1752537;28;20201;-71
2022/08/30 04:36:12;;;;;;;0.00;0.00;;;;;;;;;;1749910;28;20312;-71
2022/08/30 04:37:03;;;;;;;0.00;0.00;;;;;;;;;;1752942;28;20206;-71
2022/08/30 04:37:55;;;;;;;0.00;0.00;;;;;;;;;;1753847;28;20197;-70
2022/08/30 04:38:47;;;;;;;0.00;0.00;;;;;;;;;;1753735;28;20206;-71
2022/08/30 04:39:39;;;;;;;0.00;0.00;;;;;;;;;;1754023;28;20662;-70
2022/08/30 04:40:30;;;;;;;0.00;0.00;;;;;;;;;;1752496;28;20418;-71
2022/08/30 04:41:23;;;;;;;0.00;0.00;;;;;;;;;;1753870;28;20201;-70
2022/08/30 04:42:14;;;;;;;0.00;0.00;;;;;;;;;;1753118;28;20289;-70
2022/08/30 04:43:07;;;;;;;0.00;0.00;;;;;;;;;;1753959;28;20194;-71
2022/08/30 04:44:01;;;;;;;0.00;0.00;;;;;;;;;;1753526;28;20212;-71
2022/08/30 04:44:54;;;;;;;0.00;0.00;;;;;;;;;;1753926;28;20202;-70
2022/08/30 04:45:45;;;;;;;0.00;0.00;;;;;;;;;;1752357;28;20241;-70
2022/08/30 04:46:38;;;;;;;0.00;0.00;;;;;;;;;;1753752;28;20209;-70
2022/08/30 04:47:29;;;;;;;0.00;0.00;;;;;;;;;;1753122;28;20205;-70
2022/08/30 04:48:22;;;;;;;0.00;0.00;;;;;;;;;;1754014;28;20202;-70
2022/08/30 04:49:13;;;;;;;0.00;0.00;;;;;;;;;;1753450;28;20213;-70
2022/08/30 04:50:06;;;;;;;0.00;0.00;;;;;;;;;;1753821;28;20198;-70
2022/08/30 04:50:57;;;;;;;0.00;0.00;;;;;;;;;;1752516;28;20298;-70
2022/08/30 04:51:52;;;;;;;0.00;0.00;;;;;;;;;;1753485;28;20304;-69
2022/08/30 04:52:43;;;;;;;0.00;0.00;;;;;;;;;;1753373;28;20542;-69
2022/08/30 04:53:38;;;;;;;0.00;0.00;;;;;;;;;;1753019;28;20599;-69
2022/08/30 04:54:29;;;;;;;0.00;0.00;;;;;;;;;;1753555;28;20198;-69
2022/08/30 04:55:23;;;;;;;0.00;0.00;;;;;;;;;;1752301;28;20232;-71
2022/08/30 04:56:17;;;;;;;0.00;0.00;;;;;;;;;;1753767;28;20578;-70
2022/08/30 04:57:09;;;;;;;0.00;0.00;;;;;;;;;;1753939;28;20199;-71
2022/08/30 04:58:00;;;;;;;0.00;0.00;;;;;;;;;;1753281;28;20250;-70
2022/08/30 04:58:53;;;;;;;0.00;0.00;;;;;;;;;;1754039;28;20307;-71
2022/08/30 04:59:44;;;;;;;0.00;0.00;;;;;;;;;;1753549;28;20241;-70
2022/08/30 05:00:37;;;;;;;0.00;0.00;;;;;;;;;;1752281;28;20235;-70
2022/08/30 05:01:29;;;;;;;0.00;0.00;;;;;;;;;;1753790;28;20296;-70
2022/08/30 05:02:23;;;;;;;0.00;0.00;;;;;;;;;;1753215;28;20281;-70
2022/08/30 05:03:16;;;;;;;0.00;0.00;;;;;;;;;;1753495;28;20210;-70
2022/08/30 05:04:08;;;;;;;0.00;0.00;;;;;;;;;;1753241;28;20209;-70
2022/08/30 05:06:10;;;;;;;0.00;0.00;;;;;;;;;;1752556;28;20310;-69
2022/08/30 05:07:03;;;;;;;0.00;0.00;;;;;;;;;;1753324;28;20243;-69
2022/08/30 05:07:54;;;;;;;0.00;0.00;;;;;;;;;;1753776;28;20633;-69
2022/08/30 05:08:46;;;;;;;0.00;0.00;;;;;;;;;;1752941;28;20197;-69
2022/08/30 05:09:37;;;;;;;0.00;0.00;;;;;;;;;;1753641;28;20205;-69
2022/08/30 05:10:29;;;;;;;0.00;0.00;;;;;;;;;;1752091;28;20229;-71
2022/08/30 05:11:21;;;;;;;0.00;0.00;;;;;;;;;;1753812;28;20197;-71
2022/08/30 05:12:13;;;;;;;0.00;0.00;;;;;;;;;;1752979;28;20201;-71
2022/08/30 05:13:04;;;;;;;0.00;0.00;;;;;;;;;;1753625;28;20296;-71
2022/08/30 05:13:56;;;;;;;0.00;0.00;;;;;;;;;;1752975;28;20962;-71
2022/08/30 05:14:47;;;;;;;0.00;0.00;;;;;;;;;;1753706;28;20210;-71